Home   Weather   Palestinian Territories   Gaza   Past weeks
Flag for Palestinian Territories

Past Weather in Gaza, Gaza Strip, Palestinian Territories — Yesterday and Last 2 Weeks

Currently: 79 °F. Passing clouds. (Weather station: Ben Gurion International Airport, Palestinian Territories). See more current weather

Past Weather in Gaza — Graph

°F

Gaza Temperature Yesterday

Maximum temperature yesterday: 79 °F (at 10:50 am)
Minimum temperature yesterday: 66 °F (at 1:50 am)
Average temperature yesterday: 72 °F

High & Low Weather Summary for the Past Weeks

 TemperatureHumidityPressure
High104 °F (May 9, 11:50 am)94% (May 10, 1:50 am)30.01 "Hg (May 10, 1:50 am)
Low63 °F (May 1, 3:20 am)9% (May 9, 10:20 am)29.74 "Hg (May 9, 9:20 am)
Average76 °F51%29.88 "Hg
* Reported Apr 29 3:20 pm — May 14 3:20 pm, Gaza. Weather by CustomWeather, © 2021

Note: Actual official high and low records may vary slightly from our data, if they occured in-between our weather recording intervals... More about our weather records

Gaza Weather History for the Previous 24 Hours

Scroll right to see more
 ConditionsComfort  
Time TempWeatherWind HumidityBarometerVisibility
3:20 pm
Fri, May 14
79 °FSunny.10 mph51%29.95 "Hg10 mi
2:50 pm79 °FPassing clouds.13 mph51%29.95 "HgN/A
2:20 pm79 °FPassing clouds.12 mph51%29.95 "HgN/A
1:50 pm79 °FPassing clouds.10 mph54%29.95 "HgN/A
1:20 pm79 °FPassing clouds.13 mph54%29.95 "HgN/A
12:50 pm79 °FSunny.13 mph54%29.95 "Hg10 mi
12:20 pm79 °FPassing clouds.7 mph54%29.95 "HgN/A
11:50 am79 °FPassing clouds.7 mph51%29.95 "HgN/A
11:20 am77 °FPassing clouds.7 mph54%29.95 "HgN/A
10:50 am77 °FSunny.2 mph47%29.95 "Hg10 mi
10:20 am75 °FSunny.3 mph54%29.98 "Hg10 mi
9:50 am73 °FPassing clouds.3 mph61%29.98 "HgN/A
9:20 am73 °FScattered clouds.3 mph61%29.98 "HgN/A
8:50 am72 °FPassing clouds.2 mph65%29.98 "HgN/A
8:20 am70 °FPassing clouds.2 mph64%29.98 "HgN/A
7:50 am68 °FPassing clouds.6 mph64%29.95 "HgN/A
7:20 am66 °FPassing clouds.6 mph68%29.95 "HgN/A
6:50 am64 °FScattered clouds.6 mph68%29.95 "HgN/A
6:20 am64 °FScattered clouds.5 mph78%29.95 "HgN/A
5:50 am64 °FPartly sunny.3 mph78%29.95 "HgN/A
5:20 am64 °FPassing clouds.5 mph78%29.92 "HgN/A
4:50 am64 °FPassing clouds.3 mph78%29.92 "HgN/A
4:20 am64 °FPassing clouds.6 mph78%29.92 "HgN/A
3:50 am64 °FPassing clouds.5 mph78%29.92 "HgN/A
3:20 am64 °FClear.3 mph78%29.92 "Hg10 mi
2:50 am64 °FClear.3 mph78%29.92 "Hg10 mi
2:20 am64 °FClear.3 mph78%29.92 "Hg10 mi
1:50 am64 °FClear.3 mph78%29.92 "Hg10 mi
1:20 am66 °FPassing clouds.5 mph78%29.92 "HgN/A
12:50 am66 °FPassing clouds.5 mph78%29.92 "HgN/A
12:20 am68 °FPassing clouds.3 mph73%29.92 "HgN/A
11:50 pm
Thu, May 13
68 °FPassing clouds.3 mph73%29.92 "HgN/A
11:20 pm70 °FPassing clouds.3 mph69%29.92 "HgN/A
10:50 pm70 °FPassing clouds.3 mph69%29.95 "HgN/A
10:20 pm70 °FPassing clouds.5 mph69%29.95 "HgN/A
9:50 pm70 °FPassing clouds.6 mph73%29.95 "HgN/A
9:20 pm70 °FPassing clouds.8 mph73%29.92 "HgN/A
8:50 pm70 °FPassing clouds.9 mph73%29.92 "HgN/A
8:20 pm72 °FPassing clouds.8 mph69%29.92 "HgN/A
6:50 pm73 °FSunny.8 mph61%29.89 "Hg10 mi
6:20 pm75 °FSunny.8 mph57%29.89 "Hg10 mi
5:50 pm75 °FSunny.9 mph57%29.89 "Hg10 mi
5:20 pm75 °FPassing clouds.10 mph57%29.89 "HgN/A
4:50 pm77 °FSunny.14 mph54%29.89 "Hg10 mi
4:20 pm77 °FPassing clouds.12 mph54%29.89 "HgN/A
Weather by CustomWeather, © 2021

See weather overview